Time;durP1;ratioP1;P1;durP2;ratioP2;P2;SDS_P1;SDS_P2;PMS_P1;PMS_P2;Temp;Humidity;BMP_temperature;BMP_pressure;BME280_temperature;BME280_humidity;BME280_pressure;Samples;Min_cycle;Max_cycle;Signal;HPM_P1;HPM_P2
2021/06/22 00:00:17;;;;;;;8.90;4.40;;;;;;;15.24;98.54;95103.06;5093488;28;20059;-76
2021/06/22 00:03:03;;;;;;;9.27;4.70;;;;;;;15.23;98.43;95093.56;5093944;28;20101;-76
2021/06/22 00:05:31;;;;;;;10.25;4.55;;;;;;;15.24;98.56;95098.56;5094015;28;20040;-76
2021/06/22 00:07:57;;;;;;;8.25;4.57;;;;;;;15.21;97.49;95093.09;5102492;28;20408;-76
2021/06/22 00:10:25;;;;;;;7.82;4.38;;;;;;;15.14;97.73;95092.75;5087548;28;20036;-76
2021/06/22 00:12:52;;;;;;;9.70;4.32;;;;;;;15.09;98.16;95098.22;5085151;28;20043;-76
2021/06/22 00:15:20;;;;;;;10.20;4.50;;;;;;;15.07;98.04;95091.34;5095434;28;20096;-77
2021/06/22 00:17:47;;;;;;;11.75;4.63;;;;;;;15.04;98.10;95102.56;5090418;28;20054;-76
2021/06/22 00:20:14;;;;;;;10.00;4.57;;;;;;;14.96;97.91;95100.66;5091069;28;20060;-75
2021/06/22 00:22:42;;;;;;;10.75;4.53;;;;;;;14.98;97.92;95106.44;5093222;28;20039;-76
2021/06/22 00:25:09;;;;;;;9.23;4.60;;;;;;;14.95;97.78;95108.94;5108131;28;20061;-76
2021/06/22 00:27:35;;;;;;;8.95;4.20;;;;;;;14.89;98.17;95095.03;5093293;28;20079;-76
2021/06/22 00:30:02;;;;;;;11.30;4.28;;;;;;;14.87;98.04;95095.34;5091629;28;20489;-76
2021/06/22 00:32:28;;;;;;;8.55;3.70;;;;;;;14.86;97.35;95101.72;5090238;28;20047;-76
2021/06/22 00:34:53;;;;;;;10.20;4.40;;;;;;;14.81;97.53;95109.03;5090686;28;20036;-76
2021/06/22 00:37:19;;;;;;;7.85;3.25;;;;;;;14.76;97.33;95106.53;5097278;28;20032;-76
2021/06/22 00:39:45;;;;;;;8.32;3.30;;;;;;;14.77;97.07;95108.06;5087575;28;20040;-75
2021/06/22 00:42:12;;;;;;;7.22;3.20;;;;;;;14.76;97.51;95117.13;5110455;28;20110;-76
2021/06/22 00:44:52;;;;;;;7.22;3.53;;;;;;;14.75;97.34;95110.25;5093347;28;20032;-76
2021/06/22 00:47:19;;;;;;;8.18;3.47;;;;;;;14.75;97.29;95113.66;5075434;28;20090;-76
2021/06/22 00:49:46;;;;;;;8.00;3.25;;;;;;;14.73;97.28;95108.69;5089453;28;20505;-76
2021/06/22 00:52:12;;;;;;;8.60;4.30;;;;;;;14.79;97.12;95101.38;5092977;28;20103;-76
2021/06/22 00:54:38;;;;;;;6.53;2.70;;;;;;;14.71;97.77;95102.91;5096395;28;20432;-76
2021/06/22 00:57:08;;;;;;;5.43;3.00;;;;;;;14.68;97.45;95106.19;5092404;28;20485;-76
2021/06/22 00:59:34;;;;;;;7.40;3.08;;;;;;;14.67;97.42;95109.91;5095275;28;20078;-76
2021/06/22 01:02:04;;;;;;;7.55;3.15;;;;;;;14.67;97.51;95099.31;5094491;28;20064;-76
2021/06/22 01:04:31;;;;;;;6.53;2.80;;;;;;;14.70;97.04;95101.34;5091213;28;20044;-76
2021/06/22 01:06:58;;;;;;;7.15;3.20;;;;;;;14.63;97.44;95108.19;5098743;28;20315;-76
2021/06/22 01:09:24;;;;;;;4.55;2.80;;;;;;;14.59;97.47;95107.19;5091561;28;20074;-75
2021/06/22 01:11:50;;;;;;;7.22;2.80;;;;;;;14.59;97.52;95097.38;5099551;28;20036;-76
2021/06/22 01:14:16;;;;;;;7.78;3.42;;;;;;;14.61;97.97;95092.56;5096567;28;20110;-76
2021/06/22 01:16:42;;;;;;;7.80;3.03;;;;;;;14.61;97.73;95095.22;5095355;28;20092;-76
2021/06/22 01:19:09;;;;;;;5.97;2.78;;;;;;;14.60;97.17;95088.34;5089456;28;20043;-76
2021/06/22 01:21:36;;;;;;;8.60;3.00;;;;;;;14.59;97.62;95086.78;5087739;28;20104;-76
2021/06/22 01:24:07;;;;;;;6.70;2.67;;;;;;;14.58;97.38;95085.22;5070669;28;20044;-76
2021/06/22 01:26:34;;;;;;;5.60;2.90;;;;;;;14.58;97.48;95079.91;5091539;28;20036;-76
2021/06/22 01:29:00;;;;;;;6.35;2.70;;;;;;;14.52;97.65;95087.22;5092626;28;20044;-76
2021/06/22 01:31:26;;;;;;;4.85;2.70;;;;;;;14.51;97.70;95087.50;5099438;28;20047;-75
2021/06/22 01:33:51;;;;;;;7.50;3.20;;;;;;;14.54;98.18;95084.28;5098170;28;20039;-76
2021/06/22 01:36:19;;;;;;;9.23;3.42;;;;;;;14.51;98.64;95085.66;5091895;28;20036;-76
2021/06/22 01:38:45;;;;;;;5.40;2.70;;;;;;;14.48;98.75;95074.88;5089110;28;20032;-76
2021/06/22 01:41:10;;;;;;;6.78;2.90;;;;;;;14.40;98.47;95089.66;5099558;28;20042;-76
2021/06/22 01:43:36;;;;;;;8.65;2.78;;;;;;;14.41;98.74;95085.13;5110100;28;20443;-76
2021/06/22 01:46:03;;;;;;;9.30;3.17;;;;;;;14.40;98.94;95094.19;5102964;28;20071;-76
2021/06/22 01:48:28;;;;;;;5.82;3.30;;;;;;;14.35;99.08;95101.16;5096697;28;20505;-76
2021/06/22 01:50:54;;;;;;;6.82;2.90;;;;;;;14.28;98.93;95098.16;5091370;28;20037;-76
2021/06/22 01:53:19;;;;;;;5.40;2.80;;;;;;;14.26;99.07;95097.66;5097079;28;20047;-76
2021/06/22 01:55:52;;;;;;;4.60;2.78;;;;;;;14.27;99.91;95091.28;5090112;28;20485;-76
2021/06/22 01:58:19;;;;;;;5.93;2.85;;;;;;;14.26;100.00;95099.53;5095550;28;20035;-76
2021/06/22 02:00:56;;;;;;;6.20;3.10;;;;;;;14.26;99.85;95089.72;5093194;28;20042;-76
2021/06/22 02:03:25;;;;;;;4.82;2.90;;;;;;;14.20;99.94;95090.94;5090401;28;20047;-76
2021/06/22 02:05:51;;;;;;;7.20;3.20;;;;;;;14.21;99.86;95087.22;5085933;28;20068;-76
2021/06/22 02:08:18;;;;;;;5.18;3.20;;;;;;;14.20;99.97;95090.94;5100005;28;20071;-76
2021/06/22 02:10:45;;;;;;;6.25;2.85;;;;;;;14.20;100.00;95101.53;5086328;28;20036;-76
2021/06/22 02:13:10;;;;;;;7.88;3.22;;;;;;;14.18;99.06;95098.41;5094276;28;20056;-76
2021/06/22 02:15:37;;;;;;;8.60;3.08;;;;;;;14.25;99.18;95093.47;5107461;28;20079;-76
2021/06/22 02:18:04;;;;;;;7.13;3.17;;;;;;;14.24;98.62;95089.25;5095573;28;20047;-76
2021/06/22 02:20:30;;;;;;;6.43;3.00;;;;;;;14.25;99.12;95093.47;5101409;28;20060;-76
2021/06/22 02:22:56;;;;;;;5.93;2.90;;;;;;;14.25;99.33;95093.47;5098899;28;20497;-76
2021/06/22 02:25:22;;;;;;;5.85;3.20;;;;;;;14.22;99.18;95088.75;5095570;28;20141;-76
2021/06/22 02:27:47;;;;;;;6.22;3.15;;;;;;;14.21;98.91;95085.34;5093435;28;20067;-76
2021/06/22 02:30:16;;;;;;;3.92;2.25;;;;;;;14.18;98.38;95078.00;5088181;28;20072;-75
2021/06/22 02:32:42;;;;;;;5.35;2.90;;;;;;;14.17;98.32;95075.66;5093770;28;20032;-76
2021/06/22 02:35:10;;;;;;;4.95;2.72;;;;;;;14.19;98.51;95084.06;5095202;28;20036;-76
2021/06/22 02:37:40;;;;;;;4.35;3.03;;;;;;;14.25;100.00;95074.94;5090987;28;20063;-76
2021/06/22 02:40:08;;;;;;;6.70;2.67;;;;;;;14.28;99.53;95071.69;5093685;28;20046;-76
2021/06/22 02:42:34;;;;;;;4.75;2.65;;;;;;;14.26;98.81;95068.56;5090998;28;20036;-76
2021/06/22 02:45:00;;;;;;;7.15;3.13;;;;;;;14.31;99.75;95065.78;5096042;28;20484;-76
2021/06/22 02:47:25;;;;;;;6.82;2.95;;;;;;;14.26;99.08;95063.25;5101562;28;20108;-76
2021/06/22 02:49:51;;;;;;;4.82;2.80;;;;;;;14.30;99.33;95068.75;5096032;28;20566;-76
2021/06/22 02:52:18;;;;;;;8.13;2.72;;;;;;;14.28;99.10;95066.41;5092371;28;20470;-76
2021/06/22 02:54:43;;;;;;;5.65;2.72;;;;;;;14.27;99.38;95070.13;5094246;28;20067;-75
2021/06/22 02:57:10;;;;;;;5.18;2.65;;;;;;;14.19;99.10;95068.19;5094595;28;20513;-76
2021/06/22 02:59:37;;;;;;;5.57;3.03;;;;;;;14.16;99.36;95066.94;5104089;28;20039;-76
2021/06/22 03:02:03;;;;;;;5.55;2.80;;;;;;;14.18;99.72;95066.66;5093171;28;20040;-76
2021/06/22 03:04:29;;;;;;;5.35;2.80;;;;;;;14.18;99.19;95066.66;5096072;28;20531;-76
2021/06/22 03:06:55;;;;;;;7.40;2.83;;;;;;;14.19;99.01;95068.19;5094413;28;20032;-76
2021/06/22 03:09:21;;;;;;;6.78;3.10;;;;;;;14.27;99.38;95067.47;5097418;28;20047;-76
2021/06/22 03:11:47;;;;;;;5.47;2.80;;;;;;;14.27;98.99;95064.81;5093080;28;20032;-76
2021/06/22 03:14:13;;;;;;;6.05;3.38;;;;;;;14.27;99.66;95067.47;5091885;28;20047;-76
2021/06/22 03:16:39;;;;;;;13.25;3.30;;;;;;;14.34;99.92;95070.47;5094927;28;20115;-76
2021/06/22 03:19:04;;;;;;;5.82;3.20;;;;;;;14.35;99.51;95056.16;5099263;28;20033;-76
2021/06/22 03:21:30;;;;;;;5.32;2.72;;;;;;;14.45;99.86;95064.91;5092470;28;20039;-76
2021/06/22 03:23:55;;;;;;;6.30;3.25;;;;;;;14.48;100.00;95064.28;5093523;28;20104;-76
2021/06/22 03:26:21;;;;;;;11.20;3.08;;;;;;;14.47;99.36;95063.53;5090760;28;20028;-76
2021/06/22 03:28:46;;;;;;;8.73;3.10;;;;;;;14.48;99.36;95064.28;5093388;28;20119;-76
2021/06/22 03:31:12;;;;;;;5.93;2.70;;;;;;;14.46;99.33;95066.47;5108195;28;20042;-76
2021/06/22 03:33:37;;;;;;;7.57;3.40;;;;;;;14.46;99.39;95066.47;5103274;28;20039;-76
2021/06/22 03:36:03;;;;;;;6.82;2.90;;;;;;;14.47;99.15;95068.81;5090662;28;20119;-76
2021/06/22 03:38:29;;;;;;;5.15;2.67;;;;;;;14.48;99.46;95065.09;5093468;28;20043;-76
2021/06/22 03:40:54;;;;;;;6.13;3.20;;;;;;;14.52;100.00;95054.66;5091733;28;20516;-76
2021/06/22 03:43:21;;;;;;;7.80;3.05;;;;;;;14.52;99.99;95050.16;5091961;28;20158;-76
2021/06/22 03:45:48;;;;;;;5.70;3.42;;;;;;;14.57;99.57;95062.47;5108013;28;20044;-76
2021/06/22 03:48:13;;;;;;;4.88;2.97;;;;;;;14.55;99.60;95054.03;5084221;28;20043;-76
2021/06/22 03:50:39;;;;;;;10.35;3.30;;;;;;;14.54;99.04;95052.50;5084476;28;20113;-76
2021/06/22 03:53:06;;;;;;;7.45;3.40;;;;;;;14.60;99.37;95061.88;5095809;28;20047;-76
2021/06/22 03:55:31;;;;;;;7.80;3.20;;;;;;;14.62;98.75;95057.06;5097018;28;20505;-76
2021/06/22 03:58:00;;;;;;;6.78;3.10;;;;;;;14.64;98.86;95067.34;5094028;28;20033;-76
2021/06/22 04:00:26;;;;;;;6.82;3.33;;;;;;;14.64;98.76;95062.84;5102177;28;20040;-76
2021/06/22 04:02:54;;;;;;;9.75;3.78;;;;;;;14.68;99.07;95058.50;5094858;28;20040;-76
2021/06/22 04:05:20;;;;;;;6.53;3.75;;;;;;;14.67;98.16;95054.28;5110003;28;20036;-76
2021/06/22 04:07:46;;;;;;;5.15;3.22;;;;;;;14.71;98.10;95063.19;5103209;28;20123;-76
2021/06/22 04:10:11;;;;;;;8.32;3.38;;;;;;;14.70;98.46;95061.63;5078630;28;20048;-76
2021/06/22 04:12:37;;;;;;;8.20;4.15;;;;;;;14.71;98.68;95063.19;5086530;28;20455;-76
2021/06/22 04:15:03;;;;;;;12.80;3.47;;;;;;;14.75;98.98;95065.22;5098260;28;20042;-76
2021/06/22 04:17:29;;;;;;;6.55;3.30;;;;;;;14.84;99.10;95066.03;5092253;28;20055;-76
2021/06/22 04:19:54;;;;;;;8.02;3.70;;;;;;;14.86;99.01;95064.63;5104770;28;20036;-76
2021/06/22 04:22:20;;;;;;;6.60;3.85;;;;;;;14.91;99.35;95061.06;5099327;28;20040;-76
2021/06/22 04:24:45;;;;;;;5.70;3.75;;;;;;;14.98;100.00;95056.09;5091310;28;20040;-76
2021/06/22 04:27:11;;;;;;;8.18;3.47;;;;;;;15.02;99.89;95057.03;5088161;28;20043;-76
2021/06/22 04:29:37;;;;;;;5.70;3.53;;;;;;;14.99;98.73;95052.34;5093434;27;20071;-76
2021/06/22 04:32:03;;;;;;;6.70;3.38;;;;;;;15.02;98.77;95057.03;5098615;28;20035;-76
2021/06/22 04:34:28;;;;;;;8.05;3.60;;;;;;;15.09;97.43;95050.53;5103396;28;20057;-76
2021/06/22 04:36:54;;;;;;;11.45;3.75;;;;;;;15.14;97.21;95047.72;5084809;28;20040;-76
2021/06/22 04:39:20;;;;;;;6.25;3.67;;;;;;;15.18;95.82;95049.44;5103426;28;20058;-76
2021/06/22 04:41:45;;;;;;;8.02;3.58;;;;;;;15.21;96.35;95045.38;5091276;28;20048;-76
2021/06/22 04:44:11;;;;;;;4.93;3.05;;;;;;;15.28;95.64;95048.34;5097619;28;20039;-76
2021/06/22 04:46:37;;;;;;;5.03;2.67;;;;;;;15.29;94.82;95049.91;5097865;28;20524;-76
2021/06/22 04:49:03;;;;;;;5.25;3.00;;;;;;;15.29;94.65;95055.22;5084370;28;20043;-76
2021/06/22 04:51:29;;;;;;;6.32;2.88;;;;;;;15.30;94.35;95056.78;5105124;28;20047;-76
2021/06/22 04:53:55;;;;;;;9.20;2.97;;;;;;;15.32;94.95;95054.59;5099651;28;20115;-76
2021/06/22 04:56:21;;;;;;;7.25;3.20;;;;;;;15.33;96.05;95055.38;5093678;28;20122;-76
2021/06/22 04:58:48;;;;;;;13.32;3.13;;;;;;;15.27;95.28;95056.63;5088606;28;20037;-76
2021/06/22 05:01:14;;;;;;;5.57;3.10;;;;;;;15.30;96.19;95056.78;5102097;28;20065;-76
2021/06/22 05:03:39;;;;;;;7.88;3.00;;;;;;;15.30;97.74;95059.44;5095861;28;20047;-76
2021/06/22 05:06:05;;;;;;;6.78;3.10;;;;;;;15.37;96.14;95062.41;5090742;28;20416;-76
2021/06/22 05:08:30;;;;;;;6.60;3.30;;;;;;;15.44;96.93;95066.47;5103081;28;20043;-76
2021/06/22 05:10:56;;;;;;;6.85;3.42;;;;;;;15.44;98.50;95063.81;5093367;28;20508;-76
2021/06/22 05:13:22;;;;;;;7.18;3.60;;;;;;;15.41;98.79;95054.59;5103550;28;20320;-76
2021/06/22 05:15:48;;;;;;;7.15;3.75;;;;;;;15.42;98.55;95059.59;5093570;28;20047;-76
2021/06/22 05:18:13;;;;;;;4.75;3.28;;;;;;;15.44;98.78;95055.84;5090273;28;20449;-76
2021/06/22 05:20:39;;;;;;;7.45;3.80;;;;;;;15.50;99.23;95059.91;5093392;28;20040;-76
2021/06/22 05:23:04;;;;;;;8.75;3.63;;;;;;;15.49;98.52;95058.38;5102317;28;20032;-75
2021/06/22 05:25:30;;;;;;;9.80;3.70;;;;;;;15.52;98.83;95052.44;5088097;28;20119;-76
2021/06/22 05:27:56;;;;;;;12.00;4.20;;;;;;;15.59;97.13;95052.75;5090033;28;20124;-76
2021/06/22 05:30:22;;;;;;;8.20;4.53;;;;;;;15.63;98.36;95048.38;5091700;28;20067;-76
2021/06/22 05:32:48;;;;;;;8.95;3.97;;;;;;;15.68;97.69;95050.88;5103555;28;20044;-76
2021/06/22 05:35:13;;;;;;;11.57;4.15;;;;;;;15.75;98.61;95061.78;5089868;28;20540;-76
2021/06/22 05:37:40;;;;;;;14.68;4.70;;;;;;;15.75;98.96;95051.19;5090129;28;20516;-76
2021/06/22 05:40:07;;;;;;;7.70;3.92;;;;;;;15.81;97.56;95051.06;5090160;28;20043;-76
2021/06/22 05:42:33;;;;;;;9.80;4.75;;;;;;;15.84;95.52;95048.53;5095572;28;20075;-76
2021/06/22 05:44:58;;;;;;;12.52;4.32;;;;;;;15.99;96.57;95055.25;5091000;28;20039;-76
2021/06/22 05:47:25;;;;;;;11.10;4.22;;;;;;;15.99;98.02;95052.59;5093068;28;20524;-76
2021/06/22 05:49:50;;;;;;;10.15;4.15;;;;;;;16.15;94.32;95046.78;5095024;28;20044;-76
2021/06/22 05:52:16;;;;;;;10.15;4.05;;;;;;;16.08;97.95;95045.38;5094607;28;20052;-76
2021/06/22 05:54:42;;;;;;;8.25;4.15;;;;;;;16.06;99.82;95039.63;5093538;28;20061;-76
2021/06/22 05:57:08;;;;;;;8.98;4.00;;;;;;;16.04;99.71;95052.41;5093337;28;20040;-75
2021/06/22 05:59:33;;;;;;;9.68;3.88;;;;;;;16.11;98.95;95058.03;5092516;28;20484;-76
2021/06/22 06:01:59;;;;;;;10.63;3.78;;;;;;;16.18;96.49;95057.56;5100586;28;20382;-76
2021/06/22 06:04:27;;;;;;;10.38;4.32;;;;;;;16.26;95.46;95050.66;5108245;28;20144;-75
2021/06/22 06:06:53;;;;;;;10.50;3.38;;;;;;;16.38;95.08;95056.09;5098696;28;20434;-76
2021/06/22 06:09:19;;;;;;;7.63;3.40;;;;;;;16.31;97.29;95061.13;5084832;28;20072;-76
2021/06/22 06:11:44;;;;;;;9.32;3.20;;;;;;;16.35;93.91;95064.69;5074244;28;20043;-76
2021/06/22 06:14:10;;;;;;;11.63;3.50;;;;;;;16.41;95.00;95066.09;5092866;28;20106;-76
2021/06/22 06:16:35;;;;;;;8.52;3.95;;;;;;;16.33;98.16;95066.09;5094308;28;20080;-76
2021/06/22 06:19:01;;;;;;;10.10;3.58;;;;;;;16.38;94.91;95066.72;5096998;28;20515;-76
2021/06/22 06:21:26;;;;;;;8.07;3.60;;;;;;;16.44;94.39;95076.06;5095518;28;20202;-76
2021/06/22 06:23:56;;;;;;;13.10;4.00;;;;;;;16.58;93.86;95075.88;5113818;28;20074;-76
2021/06/22 06:26:22;;;;;;;7.93;3.30;;;;;;;16.70;93.41;95066.47;5113520;28;20039;-77
2021/06/22 06:28:52;;;;;;;8.73;3.90;;;;;;;16.57;94.56;95073.53;5096090;28;20044;-76
2021/06/22 06:31:21;;;;;;;17.58;4.60;;;;;;;16.70;94.44;95074.44;5095616;28;20036;-75
2021/06/22 06:33:47;;;;;;;8.23;4.20;;;;;;;16.63;96.79;95083.66;5091753;28;20036;-77
2021/06/22 06:36:12;;;;;;;7.20;3.40;;;;;;;16.74;92.87;95073.47;5087123;28;20451;-76
2021/06/22 06:38:38;;;;;;;9.40;3.83;;;;;;;16.82;92.71;95068.44;5087585;28;20040;-76
2021/06/22 06:41:03;;;;;;;11.25;3.58;;;;;;;16.98;92.14;95077.44;5088914;28;20089;-75
2021/06/22 06:43:29;;;;;;;7.30;3.10;;;;;;;17.02;88.79;95077.59;5086852;28;20044;-76
2021/06/22 06:45:54;;;;;;;7.95;3.10;;;;;;;16.92;92.24;95073.41;5086255;28;20044;-76
2021/06/22 06:48:21;;;;;;;7.75;3.22;;;;;;;16.84;93.60;95066.22;5087029;28;20044;-76
2021/06/22 06:50:47;;;;;;;8.50;3.42;;;;;;;16.84;94.42;95060.91;5090284;28;20040;-77
2021/06/22 06:53:12;;;;;;;10.23;3.17;;;;;;;16.93;88.69;95059.03;5087524;28;20040;-75
2021/06/22 06:55:41;;;;;;;6.10;3.10;;;;;;;17.00;89.02;95058.53;5089157;28;20048;-77
2021/06/22 06:58:06;;;;;;;12.18;3.83;;;;;;;17.05;92.11;95061.78;5088144;28;20036;-77
2021/06/22 07:00:36;;;;;;;12.68;3.50;;;;;;;17.18;92.30;95059.22;5091320;28;20055;-78
2021/06/22 07:03:04;;;;;;;5.95;2.65;;;;;;;17.12;91.04;95056.75;5087814;28;20039;-74
2021/06/22 07:05:30;;;;;;;9.98;3.50;;;;;;;17.08;89.69;95066.47;5086522;28;20126;-75
2021/06/22 07:07:57;;;;;;;7.38;3.08;;;;;;;17.19;90.88;95063.44;5088386;28;20103;-77
2021/06/22 07:10:23;;;;;;;7.78;3.60;;;;;;;17.06;93.47;95063.34;5083667;28;20043;-76
2021/06/22 07:12:49;;;;;;;7.30;3.20;;;;;;;17.00;92.03;95064.63;5086246;28;20043;-74
2021/06/22 07:15:15;;;;;;;7.93;3.47;;;;;;;17.12;89.03;95062.06;5087529;28;20036;-75
2021/06/22 07:17:41;;;;;;;12.70;4.13;;;;;;;17.35;89.16;95067.06;5086009;28;20036;-75
2021/06/22 07:20:07;;;;;;;18.77;4.60;;;;;;;17.40;89.30;95061.56;5087412;28;20044;-74
2021/06/22 07:22:34;;;;;;;11.90;3.28;;;;;;;17.42;88.25;95059.34;5089993;28;20044;-75
2021/06/22 07:25:00;;;;;;;9.23;3.53;;;;;;;17.39;89.04;95060.00;5086235;28;20033;-75
2021/06/22 07:27:26;;;;;;;9.52;3.28;;;;;;;17.54;87.20;95061.31;5094797;28;20048;-76
2021/06/22 07:29:52;;;;;;;6.18;3.03;;;;;;;17.42;91.00;95059.34;5113286;28;20393;-77
2021/06/22 07:32:17;;;;;;;10.18;3.67;;;;;;;17.38;89.94;95053.13;5093043;28;20119;-76
2021/06/22 07:34:43;;;;;;;6.45;3.05;;;;;;;17.49;90.82;95056.94;5086028;28;20040;-72
2021/06/22 07:37:08;;;;;;;8.32;2.85;;;;;;;17.58;85.11;95056.88;5086730;28;20497;-75
2021/06/22 07:39:34;;;;;;;7.53;2.95;;;;;;;17.52;83.89;95052.09;5087352;28;20196;-75
2021/06/22 07:41:59;;;;;;;7.60;3.28;;;;;;;17.48;87.87;95063.41;5086866;28;20043;-75
2021/06/22 07:44:25;;;;;;;7.38;3.10;;;;;;;17.49;89.48;95059.63;5090613;28;20107;-78
2021/06/22 07:46:51;;;;;;;19.08;3.55;;;;;;;17.62;84.33;95057.03;5100781;28;20043;-78
2021/06/22 07:49:16;;;;;;;5.80;2.67;;;;;;;17.61;87.50;95055.47;5083457;28;20475;-74
2021/06/22 07:51:42;;;;;;;11.88;3.10;;;;;;;17.76;85.98;95046.91;5071642;28;20086;-76
2021/06/22 07:54:08;;;;;;;9.88;3.10;;;;;;;17.90;85.00;95045.81;5087153;28;20068;-74
2021/06/22 07:56:34;;;;;;;6.18;3.10;;;;;;;17.82;86.04;95034.16;5093109;28;20040;-75
2021/06/22 07:58:59;;;;;;;6.88;2.90;;;;;;;17.91;84.93;95036.78;5086841;28;20205;-76
2021/06/22 08:01:26;;;;;;;6.97;3.20;;;;;;;17.95;87.18;95035.03;5093128;28;20040;-76
2021/06/22 08:03:51;;;;;;;9.70;2.95;;;;;;;17.89;86.09;95038.97;5090784;28;20173;-73
2021/06/22 08:06:17;;;;;;;8.73;3.00;;;;;;;17.77;88.03;95029.84;5092710;28;20505;-73
2021/06/22 08:08:43;;;;;;;9.02;3.00;;;;;;;17.93;85.42;95029.22;5090240;28;20069;-76
2021/06/22 08:11:08;;;;;;;7.60;3.20;;;;;;;18.12;83.52;95034.84;5092875;28;20050;-75
2021/06/22 08:13:34;;;;;;;11.55;3.70;;;;;;;18.23;84.52;95026.44;5095192;28;20051;-74
2021/06/22 08:16:01;;;;;;;8.02;3.03;;;;;;;18.24;81.98;95030.66;5092708;28;20051;-75
2021/06/22 08:18:27;;;;;;;12.35;3.50;;;;;;;18.30;82.00;95026.66;5090778;28;20047;-75
2021/06/22 08:20:53;;;;;;;7.78;3.08;;;;;;;18.33;82.28;95026.00;5092038;28;20098;-76
2021/06/22 08:23:19;;;;;;;6.50;3.20;;;;;;;18.29;82.55;95022.47;5086340;28;20032;-76
2021/06/22 08:25:45;;;;;;;6.65;2.83;;;;;;;18.34;82.13;95022.25;5093300;28;20493;-75
2021/06/22 08:28:11;;;;;;;11.40;3.50;;;;;;;18.38;81.78;95038.34;5085058;28;20089;-73
2021/06/22 08:30:37;;;;;;;7.93;3.17;;;;;;;18.30;81.37;95024.00;5091336;28;20069;-73
2021/06/22 08:33:04;;;;;;;9.02;3.88;;;;;;;18.37;82.49;95032.22;5089292;28;20115;-73
2021/06/22 08:35:31;;;;;;;7.47;3.58;;;;;;;18.35;85.04;95039.78;5091401;28;20044;-73
2021/06/22 08:37:59;;;;;;;6.55;2.97;;;;;;;18.35;82.02;95029.13;5082678;28;20039;-73
2021/06/22 08:40:24;;;;;;;25.17;4.30;;;;;;;18.66;79.62;95033.94;5073631;28;20395;-73
2021/06/22 08:42:50;;;;;;;19.55;4.97;;;;;;;18.73;80.74;95033.38;5071075;28;20101;-73
2021/06/22 08:45:17;;;;;;;16.42;4.28;;;;;;;19.00;80.59;95025.84;5091221;28;20036;-73
2021/06/22 08:47:44;;;;;;;10.07;3.72;;;;;;;18.96;82.89;95035.63;5090402;28;20047;-73
2021/06/22 08:50:12;;;;;;;12.85;4.30;;;;;;;19.06;80.37;95035.16;5091213;28;20044;-73
2021/06/22 08:52:38;;;;;;;13.07;4.45;;;;;;;19.18;79.46;95027.16;5094907;28;20048;-73
2021/06/22 08:55:07;;;;;;;9.85;3.50;;;;;;;19.03;76.71;95035.84;5089379;28;20032;-73
2021/06/22 08:57:34;;;;;;;8.82;3.42;;;;;;;19.16;78.98;95040.03;5093558;28;20047;-73
2021/06/22 09:00:00;;;;;;;9.20;4.47;;;;;;;19.24;78.87;95029.59;5083662;28;20048;-74
2021/06/22 09:02:27;;;;;;;9.93;3.95;;;;;;;19.26;81.30;95033.47;5086936;28;20504;-73
2021/06/22 09:04:53;;;;;;;10.57;3.50;;;;;;;19.24;80.62;95035.72;5088744;28;20059;-73
2021/06/22 09:07:45;;;;;;;8.05;2.95;;;;;;;19.33;81.11;95038.25;5087815;28;20043;-73
2021/06/22 09:10:27;;;;;;;10.15;3.78;;;;;;;19.47;81.69;95036.00;5084085;28;20088;-73
2021/06/22 09:12:54;;;;;;;10.57;3.65;;;;;;;19.52;78.24;95040.31;5087339;28;20044;-73
2021/06/22 09:15:21;;;;;;;7.55;3.15;;;;;;;19.87;75.11;95040.56;5088404;28;20044;-76
2021/06/22 09:17:48;;;;;;;7.55;3.20;;;;;;;19.86;78.41;95044.34;5086885;28;20114;-74
2021/06/22 09:20:30;;;;;;;11.63;3.55;;;;;;;19.80;76.55;95045.72;5086597;28;20059;-76
2021/06/22 09:23:04;;;;;;;12.50;3.40;;;;;;;19.87;75.38;95045.91;5087419;28;20102;-76
2021/06/22 09:25:32;;;;;;;;;;;;;;;19.99;77.68;95046.97;5086018;28;20039;-78
2021/06/22 09:27:57;;;;;;;8.50;3.28;;;;;;;19.95;74.78;95046.09;5090643;28;20391;-77
2021/06/22 09:30:45;;;;;;;6.03;3.17;;;;;;;19.87;75.66;95029.88;5090700;28;20071;-79
2021/06/22 09:33:18;;;;;;;8.95;2.97;;;;;;;19.82;76.18;95040.78;5085255;28;20042;-79
2021/06/22 09:35:45;;;;;;;6.75;3.50;;;;;;;19.97;73.91;95033.16;5087302;28;20036;-81
2021/06/22 09:38:12;;;;;;;6.72;3.20;;;;;;;20.19;76.53;95035.28;5090550;28;20059;-77
2021/06/22 09:40:38;;;;;;;10.73;3.70;;;;;;;20.28;72.59;95037.03;5085605;28;20040;-76
2021/06/22 09:43:03;;;;;;;8.13;3.63;;;;;;;20.59;72.17;95021.00;5087740;28;20205;-77
2021/06/22 09:45:30;;;;;;;8.35;3.22;;;;;;;20.59;71.48;95023.69;5090256;28;20036;-75
2021/06/22 09:47:59;;;;;;;10.85;3.50;;;;;;;20.54;72.82;95023.16;5084284;28;20040;-75
2021/06/22 09:50:39;;;;;;;8.20;3.72;;;;;;;20.47;71.32;95023.75;5070310;28;20044;-77
2021/06/22 09:53:23;;;;;;;7.53;3.72;;;;;;;20.63;72.88;95031.00;5088874;28;20405;-77
2021/06/22 09:55:48;;;;;;;6.97;3.20;;;;;;;20.73;72.61;95025.16;5081731;28;20039;-73
2021/06/22 09:58:14;;;;;;;7.80;3.63;;;;;;;20.93;71.75;95028.69;5088677;28;20040;-71
2021/06/22 10:00:40;;;;;;;5.80;3.65;;;;;;;20.90;69.81;95018.69;5088601;28;20040;-71
2021/06/22 10:03:06;;;;;;;5.80;3.55;;;;;;;21.26;69.63;95022.94;5084417;28;20044;-71
2021/06/22 10:05:51;;;;;;;5.32;3.20;;;;;;;21.20;72.15;95021.63;5083663;28;20119;-75
2021/06/22 10:08:17;;;;;;;5.43;2.75;;;;;;;21.54;71.89;95024.66;5081438;28;20502;-75
2021/06/22 10:10:42;;;;;;;6.55;3.55;;;;;;;21.75;67.87;95023.53;5081957;28;20062;-75
2021/06/22 10:13:08;;;;;;;5.47;3.13;;;;;;;21.87;68.27;95020.72;5084090;28;20055;-75
2021/06/22 10:15:34;;;;;;;6.95;3.60;;;;;;;21.62;67.51;95026.38;5087273;28;20044;-78
2021/06/22 10:18:00;;;;;;;8.93;3.22;;;;;;;21.66;68.04;95020.31;5085614;28;20124;-77
2021/06/22 10:20:25;;;;;;;8.57;3.40;;;;;;;21.71;67.92;95022.72;5086964;28;20071;-77
2021/06/22 10:22:51;;;;;;;5.95;3.08;;;;;;;21.72;67.65;95016.22;5090490;28;20055;-80
2021/06/22 10:25:17;;;;;;;9.13;3.35;;;;;;;22.37;66.84;95020.09;5089221;28;20044;-79
2021/06/22 10:27:43;;;;;;;7.30;3.03;;;;;;;22.70;65.51;95016.81;5087282;28;20179;-79
2021/06/22 10:30:10;;;;;;;7.40;3.85;;;;;;;22.56;64.70;95028.09;5093134;28;20028;-78
2021/06/22 10:32:37;;;;;;;9.00;2.88;;;;;;;22.60;63.48;95018.19;5094111;28;20106;-79
2021/06/22 10:35:09;;;;;;;10.25;3.38;;;;;;;22.28;63.75;95021.09;5098425;28;20433;-74
2021/06/22 10:37:38;;;;;;;8.13;3.05;;;;;;;22.51;63.64;95022.25;5091539;28;20111;-73
2021/06/22 10:40:20;;;;;;;7.20;3.30;;;;;;;22.93;63.88;95024.84;5091994;28;20043;-73
2021/06/22 10:42:56;;;;;;;5.53;3.08;;;;;;;23.28;62.88;95029.19;5092772;28;20491;-73
2021/06/22 10:45:22;;;;;;;5.82;2.67;;;;;;;23.24;61.64;95031.03;5093599;28;20512;-73
2021/06/22 10:47:49;;;;;;;10.10;3.25;;;;;;;23.59;60.62;95021.13;5079455;28;20056;-74
2021/06/22 10:50:29;;;;;;;6.68;2.80;;;;;;;23.81;60.18;95022.16;5090866;28;20115;-78
2021/06/22 10:52:56;;;;;;;6.60;2.70;;;;;;;24.17;56.91;95025.25;5093283;28;20040;-76
2021/06/22 10:55:56;;;;;;;8.20;3.25;;;;;;;23.24;59.54;95030.28;5089321;28;20043;-76
2021/06/22 10:58:22;;;;;;;7.05;3.10;;;;;;;23.77;61.37;95026.72;5092112;28;20040;-76
2021/06/22 11:00:50;;;;;;;7.32;3.50;;;;;;;24.06;59.69;95027.06;5093839;28;20036;-78
2021/06/22 11:03:32;;;;;;;7.72;3.10;;;;;;;23.67;60.19;95028.91;5091181;28;20119;-77
2021/06/22 11:06:09;;;;;;;5.85;2.90;;;;;;;24.07;57.88;95031.31;5085720;28;20075;-77
2021/06/22 11:08:38;;;;;;;7.93;3.00;;;;;;;23.82;58.26;95037.13;5090719;28;20050;-77
2021/06/22 11:11:06;;;;;;;5.75;2.78;;;;;;;24.57;55.78;95034.47;5086736;28;20051;-78
2021/06/22 11:13:39;;;;;;;8.20;3.10;;;;;;;25.08;54.62;95036.44;5091611;28;20044;-77
2021/06/22 11:16:14;;;;;;;7.22;2.97;;;;;;;24.56;54.40;95043.69;5092996;28;20040;-77
2021/06/22 11:21:21;;;;;;;8.75;2.85;;;;;;;25.32;56.16;95039.66;5091694;28;20043;-75
2021/06/22 11:24:14;;;;;;;7.38;2.85;;;;;;;25.08;54.61;95047.19;5091325;28;20044;-77
2021/06/22 11:26:48;;;;;;;5.25;2.75;;;;;;;25.69;54.10;95052.19;5090095;28;20074;-78
2021/06/22 11:29:26;;;;;;;6.22;2.80;;;;;;;25.77;52.45;95042.97;5090829;28;20119;-77
2021/06/22 11:31:51;;;;;;;10.88;2.83;;;;;;;26.49;51.03;95041.63;5090806;28;20051;-75
2021/06/22 11:34:19;;;;;;;8.30;3.05;;;;;;;25.48;50.32;95046.69;5083120;28;20040;-76